createdAt,value
2022-09-12T00:04:23.914Z,99867.94
2022-09-12T00:09:26.754Z,99871.28
2022-09-12T00:14:29.684Z,99870.06
2022-09-12T00:19:32.555Z,99869.25
2022-09-12T00:24:35.337Z,99870.13
2022-09-12T00:29:38.211Z,99871.16
2022-09-12T00:34:41.343Z,99866.06
2022-09-12T00:39:44.164Z,99857.88
2022-09-12T00:44:51.484Z,99849.44
2022-09-12T00:50:13.717Z,99848.19
2022-09-12T00:55:26.393Z,99850.03
2022-09-12T01:00:29.932Z,99849.22
2022-09-12T01:05:36.912Z,99845.50
2022-09-12T01:10:42.127Z,99853.34
2022-09-12T01:15:44.962Z,99849.19
2022-09-12T01:21:02.752Z,99855.13
2022-09-12T01:26:47.595Z,99863.13
2022-09-12T01:32:18.029Z,99872.13
2022-09-12T01:37:50.650Z,99871.63
2022-09-12T01:43:21.338Z,99869.50
2022-09-12T01:48:32.531Z,99871.94
2022-09-12T01:53:42.435Z,99879.97
2022-09-12T01:59:09.702Z,99880.56
2022-09-12T02:04:34.138Z,99873.94
2022-09-12T02:09:49.505Z,99873.06
2022-09-12T02:15:00.195Z,99864.81
2022-09-12T02:20:47.421Z,99875.06
2022-09-12T02:25:58.053Z,99877.56
2022-09-12T02:31:23.261Z,99883.94
2022-09-12T02:36:46.370Z,99884.94
2022-09-12T02:41:52.441Z,99884.53
2022-09-12T02:47:19.378Z,99902.56
2022-09-12T02:52:22.529Z,99887.81
2022-09-12T02:57:25.676Z,99888.22
2022-09-12T03:03:12.664Z,99876.91
2022-09-12T03:08:22.133Z,99880.41
2022-09-12T03:14:05.289Z,99892.97
2022-09-12T03:19:32.604Z,99909.03
2022-09-12T03:25:17.290Z,99905.34
2022-09-12T03:30:20.764Z,99911.53
2022-09-12T03:35:25.119Z,99923.41
2022-09-12T03:40:27.934Z,99911.47
2022-09-12T03:45:30.885Z,99908.81
2022-09-12T03:50:34.219Z,99902.81
2022-09-12T03:55:39.590Z,99907.09
2022-09-12T04:00:44.303Z,99919.00
2022-09-12T04:05:47.804Z,99907.66
2022-09-12T04:10:50.648Z,99905.41
2022-09-12T04:16:00.733Z,99915.81
2022-09-12T04:21:11.465Z,99922.38
2022-09-12T04:26:16.708Z,99922.56
2022-09-12T04:31:22.633Z,99912.53
2022-09-12T04:36:27.202Z,99916.28
2022-09-12T04:41:35.429Z,99909.72
2022-09-12T04:46:42.521Z,99917.53
2022-09-12T04:51:46.250Z,99914.81
2022-09-12T04:56:50.862Z,99918.91
2022-09-12T05:01:53.812Z,99920.91
2022-09-12T05:06:56.558Z,99913.94
2022-09-12T05:12:04.238Z,99918.75
2022-09-12T05:17:07.498Z,99925.97
2022-09-12T05:22:10.366Z,99933.16
2022-09-12T05:27:13.143Z,99942.63
2022-09-12T05:32:16.869Z,99953.75
2022-09-12T05:37:19.741Z,99951.53
2022-09-12T05:42:23.509Z,99951.63
2022-09-12T05:47:26.349Z,99959.72
2022-09-12T05:52:29.075Z,99946.09
2022-09-12T05:57:33.304Z,99953.41
2022-09-12T06:02:36.208Z,99955.19
2022-09-12T06:07:38.985Z,99950.09
2022-09-12T06:12:42.351Z,99950.94
2022-09-12T06:17:48.361Z,99950.94
2022-09-12T06:22:54.164Z,99955.28
2022-09-12T06:27:56.978Z,99960.88
2022-09-12T06:32:59.735Z,99958.41
2022-09-12T06:38:02.547Z,99958.22
2022-09-12T06:43:05.744Z,99961.31
2022-09-12T06:48:08.618Z,99965.06
2022-09-12T06:53:11.555Z,99957.66
2022-09-12T06:58:14.489Z,99961.56
2022-09-12T07:03:18.180Z,99967.50
2022-09-12T07:08:20.938Z,99971.63
2022-09-12T07:13:24.010Z,99981.88
2022-09-12T07:18:27.328Z,99973.59
2022-09-12T07:23:30.732Z,99987.41
2022-09-12T07:28:34.712Z,99988.66
2022-09-12T07:33:39.694Z,99984.75
2022-09-12T07:38:43.783Z,99989.25
2022-09-12T07:43:47.854Z,99990.41
2022-09-12T07:48:52.723Z,99999.06
2022-09-12T07:53:56.621Z,99985.16
2022-09-12T07:58:59.525Z,99983.31
2022-09-12T08:04:03.476Z,99994.28
2022-09-12T08:09:07.933Z,99990.16
2022-09-12T08:14:10.694Z,99988.03
2022-09-12T08:19:14.598Z,99986.94
2022-09-12T08:24:17.939Z,99979.03
2022-09-12T08:29:21.639Z,99989.72
2022-09-12T08:34:24.916Z,99976.94
2022-09-12T08:39:27.779Z,99980.66
2022-09-12T08:44:47.356Z,99978.63
2022-09-12T08:50:08.909Z,99960.38
2022-09-12T08:55:27.586Z,99956.56
2022-09-12T09:00:56.065Z,99960.22
2022-09-12T09:06:47.385Z,99960.13
2022-09-12T09:12:23.953Z,99959.53
2022-09-12T09:17:35.993Z,99961.16
2022-09-12T09:22:44.554Z,99950.75
2022-09-12T09:28:02.311Z,99965.75
2022-09-12T09:33:10.097Z,99958.03
2022-09-12T09:38:42.202Z,99959.78
2022-09-12T09:43:45.526Z,99946.16
2022-09-12T09:48:50.691Z,99951.16
2022-09-12T09:54:01.097Z,99943.91
2022-09-12T09:59:28.344Z,99950.47
2022-09-12T10:04:39.345Z,99967.41
2022-09-12T10:10:27.274Z,99966.75
2022-09-12T10:15:30.610Z,99956.63
2022-09-12T10:20:45.973Z,99966.44
2022-09-12T10:25:55.262Z,99964.31
2022-09-12T10:31:00.056Z,99958.25
2022-09-12T10:36:03.798Z,99942.16
2022-09-12T10:41:10.128Z,99928.81
2022-09-12T10:46:16.334Z,99934.47
2022-09-12T10:51:25.409Z,99940.34
2022-09-12T10:56:33.761Z,99932.59
2022-09-12T11:01:47.287Z,99927.53
2022-09-12T11:07:31.537Z,99923.19
2022-09-12T11:12:46.836Z,99908.38
2022-09-12T11:18:26.341Z,99899.91
2022-09-12T11:24:15.676Z,99905.16
2022-09-12T11:29:37.986Z,99904.88
2022-09-12T11:35:25.219Z,99912.09
2022-09-12T11:40:36.165Z,99913.03
2022-09-12T11:45:44.640Z,99916.66
2022-09-12T11:50:48.062Z,99911.13
2022-09-12T11:56:25.196Z,99914.19
2022-09-12T12:01:44.038Z,99909.75
2022-09-12T12:07:02.857Z,99899.53
2022-09-12T12:12:11.624Z,99913.00
2022-09-12T12:17:26.203Z,99906.97
2022-09-12T12:22:29.282Z,99901.59
2022-09-12T12:27:54.977Z,99899.38
2022-09-12T12:33:13.324Z,99895.50
2022-09-12T12:38:37.192Z,99890.31
2022-09-12T12:43:40.202Z,99893.78
2022-09-12T12:48:58.947Z,99890.97
2022-09-12T12:54:09.769Z,99890.72
2022-09-12T12:59:23.195Z,99876.44
2022-09-12T13:04:30.536Z,99882.88
2022-09-12T13:09:44.769Z,99881.78
2022-09-12T13:14:49.088Z,99873.06
2022-09-12T13:20:26.182Z,99867.19
2022-09-12T13:25:36.680Z,99864.91
2022-09-12T13:30:48.165Z,99847.56
2022-09-12T13:36:06.087Z,99845.59
2022-09-12T13:41:53.430Z,99840.84
2022-09-12T13:47:00.834Z,99836.75
2022-09-12T13:52:15.977Z,99843.97
2022-09-12T13:57:36.278Z,99838.91
2022-09-12T14:02:40.673Z,99834.31
2022-09-12T14:08:04.681Z,99828.34
2022-09-12T14:13:26.599Z,99834.88
2022-09-12T14:18:34.027Z,99824.28
2022-09-12T14:23:42.671Z,99831.59
2022-09-12T14:28:48.176Z,99827.88
2022-09-12T14:34:10.993Z,99836.66
2022-09-12T14:39:32.021Z,99834.16
2022-09-12T14:44:36.439Z,99845.06
2022-09-12T14:49:39.714Z,99843.50
2022-09-12T14:55:16.298Z,99837.28
2022-09-12T15:00:23.178Z,99828.72
2022-09-12T15:05:27.482Z,99832.31
2022-09-12T15:10:40.488Z,99827.25
2022-09-12T15:15:57.752Z,99830.03
2022-09-12T15:21:07.746Z,99825.16
2022-09-12T15:26:15.694Z,99816.91
2022-09-12T15:31:31.029Z,99823.69
2022-09-12T15:36:33.988Z,99828.88
2022-09-12T15:41:39.063Z,99827.81
2022-09-12T15:46:42.235Z,99824.69
2022-09-12T15:51:45.074Z,99827.66
2022-09-12T15:56:47.959Z,99826.47
2022-09-12T16:01:51.112Z,99831.34
2022-09-12T16:06:56.074Z,99832.59
2022-09-12T16:11:58.900Z,99850.44
2022-09-12T16:17:01.843Z,99838.72
2022-09-12T16:22:04.648Z,99841.13
2022-09-12T16:27:07.536Z,99845.22
2022-09-12T16:32:10.417Z,99842.25
2022-09-12T16:37:13.321Z,99845.38
2022-09-12T16:42:19.495Z,99849.97
2022-09-12T16:47:22.418Z,99845.34
2022-09-12T16:52:25.253Z,99853.53
2022-09-12T16:57:28.067Z,99856.31
2022-09-12T17:02:30.789Z,99852.88
2022-09-12T17:07:34.875Z,99861.22
2022-09-12T17:12:37.655Z,99862.91
2022-09-12T17:17:40.544Z,99859.28
2022-09-12T17:22:43.339Z,99879.16
2022-09-12T17:27:46.209Z,99870.28
2022-09-12T17:32:52.535Z,99878.63
2022-09-12T17:37:55.595Z,99890.00
2022-09-12T17:42:58.997Z,99899.75
2022-09-12T17:48:02.873Z,99906.88
2022-09-12T17:53:06.418Z,99916.00
2022-09-12T17:58:09.690Z,99920.22
2022-09-12T18:03:13.077Z,99941.03
2022-09-12T18:08:15.993Z,99944.91
2022-09-12T18:13:18.869Z,99941.47
2022-09-12T18:18:21.583Z,99947.34
2022-09-12T18:23:24.495Z,99952.56
2022-09-12T18:28:27.407Z,99955.91
2022-09-12T18:33:30.293Z,99951.84
2022-09-12T18:38:33.345Z,99957.59
2022-09-12T18:43:36.792Z,99951.03
2022-09-12T18:48:40.529Z,99954.75
2022-09-12T18:53:43.927Z,99959.28
2022-09-12T18:58:52.406Z,99962.59
2022-09-12T19:03:56.066Z,99952.47
2022-09-12T19:09:02.695Z,99957.00
2022-09-12T19:14:08.519Z,99962.97
2022-09-12T19:19:11.712Z,99960.28
2022-09-12T19:24:16.333Z,99953.28
2022-09-12T19:29:19.445Z,99959.88
2022-09-12T19:34:22.323Z,99954.91
2022-09-12T19:39:25.279Z,99956.56
2022-09-12T19:44:30.460Z,99951.00
2022-09-12T19:49:33.251Z,99949.34
2022-09-12T19:54:36.096Z,99953.28
2022-09-12T19:59:38.871Z,99945.84
2022-09-12T20:04:41.676Z,99940.72
2022-09-12T20:09:44.441Z,99946.06
2022-09-12T20:14:47.343Z,99938.66
2022-09-12T20:19:50.141Z,99941.75
2022-09-12T20:24:52.935Z,99942.34
2022-09-12T20:29:58.328Z,99955.50
2022-09-12T20:35:01.561Z,99953.03
2022-09-12T20:40:05.491Z,99948.91
2022-09-12T20:45:08.744Z,99951.75
2022-09-12T20:50:11.894Z,99956.06
2022-09-12T20:55:14.839Z,99957.88
2022-09-12T21:00:18.042Z,99953.13
2022-09-12T21:05:20.873Z,99958.22
2022-09-12T21:10:24.827Z,99973.84
2022-09-12T21:15:27.934Z,99968.84
2022-09-12T21:20:31.841Z,99983.56
2022-09-12T21:25:34.721Z,99986.75
2022-09-12T21:30:39.021Z,99995.22
2022-09-12T21:35:42.271Z,99995.91
2022-09-12T21:40:46.409Z,100008.94
2022-09-12T21:45:56.609Z,100005.75
2022-09-12T21:50:59.955Z,100010.97
2022-09-12T21:56:08.393Z,100002.91
2022-09-12T22:01:12.701Z,100010.16
2022-09-12T22:06:17.775Z,100011.94
2022-09-12T22:11:23.756Z,100012.00
2022-09-12T22:16:26.633Z,100008.97
2022-09-12T22:21:29.507Z,100021.22
2022-09-12T22:26:42.144Z,100014.53
2022-09-12T22:31:44.945Z,100023.19
2022-09-12T22:36:48.886Z,100022.19
2022-09-12T22:41:51.657Z,100034.47
2022-09-12T22:46:54.595Z,100029.69
2022-09-12T22:51:57.471Z,100032.78
2022-09-12T22:57:00.383Z,100030.91
2022-09-12T23:02:03.998Z,100033.97
2022-09-12T23:07:06.928Z,100026.06
2022-09-12T23:12:09.929Z,100019.78
2022-09-12T23:17:12.757Z,100028.03
2022-09-12T23:22:15.574Z,100034.69
2022-09-12T23:27:18.443Z,100024.81
2022-09-12T23:32:21.371Z,100029.16
2022-09-12T23:37:24.127Z,100019.09
2022-09-12T23:42:26.833Z,100024.41
2022-09-12T23:47:30.179Z,100029.09
2022-09-12T23:52:32.864Z,100025.97
2022-09-12T23:57:35.759Z,100033.09
